createdAt,value
2018-12-03T00:00:41.090Z,21.02
2018-12-03T00:03:07.036Z,21.03
2018-12-03T00:05:33.007Z,21.02
2018-12-03T00:07:58.970Z,21.03
2018-12-03T00:10:24.930Z,21.03
2018-12-03T00:12:50.951Z,21.04
2018-12-03T00:15:16.902Z,21.02
2018-12-03T00:17:42.861Z,21.01
2018-12-03T00:20:08.815Z,21.00
2018-12-03T00:22:34.774Z,21.01
2018-12-03T00:25:00.734Z,21.01
2018-12-03T00:27:26.697Z,21.00
2018-12-03T00:29:52.655Z,20.99
2018-12-03T00:32:18.698Z,21.00
2018-12-03T00:34:44.672Z,20.98
2018-12-03T00:37:10.647Z,20.98
2018-12-03T00:39:36.610Z,20.98
2018-12-03T00:42:02.566Z,20.99
2018-12-03T00:44:28.527Z,20.97
2018-12-03T00:46:54.486Z,20.97
2018-12-03T00:49:20.453Z,20.96
2018-12-03T00:51:46.500Z,20.96
2018-12-03T00:54:12.480Z,20.94
2018-12-03T00:56:38.433Z,20.95
2018-12-03T00:59:04.386Z,20.95
2018-12-03T01:01:30.365Z,20.95
2018-12-03T01:03:56.334Z,20.96
2018-12-03T01:06:22.369Z,20.93
2018-12-03T01:08:48.360Z,20.95
2018-12-03T01:11:14.318Z,20.93
2018-12-03T01:13:40.281Z,20.95
2018-12-03T01:16:06.385Z,20.94
2018-12-03T01:18:32.333Z,20.93
2018-12-03T01:20:58.315Z,20.93
2018-12-03T01:23:24.286Z,20.93
2018-12-03T01:25:50.306Z,20.94
2018-12-03T01:28:16.234Z,20.94
2018-12-03T01:30:42.209Z,20.93
2018-12-03T01:33:08.159Z,20.94
2018-12-03T01:35:34.129Z,20.94
2018-12-03T01:38:00.087Z,20.94
2018-12-03T01:40:26.077Z,20.92
2018-12-03T01:42:52.029Z,20.92
2018-12-03T01:45:18.009Z,20.89
2018-12-03T01:47:43.963Z,20.91
2018-12-03T01:50:09.973Z,20.92
2018-12-03T01:52:35.937Z,20.91
2018-12-03T01:55:01.929Z,20.90
2018-12-03T01:57:27.881Z,20.90
2018-12-03T01:59:53.828Z,20.90
2018-12-03T02:02:19.810Z,20.91
2018-12-03T02:04:45.756Z,20.91
2018-12-03T02:07:11.721Z,20.91
2018-12-03T02:09:37.673Z,20.92
2018-12-03T02:12:03.643Z,20.91
2018-12-03T02:14:29.658Z,20.90
2018-12-03T02:16:55.630Z,20.90
2018-12-03T02:19:21.594Z,20.93
2018-12-03T02:21:47.706Z,20.95
2018-12-03T02:24:13.774Z,20.96
2018-12-03T02:26:39.719Z,20.97
2018-12-03T02:29:05.694Z,20.96
2018-12-03T02:31:31.636Z,20.97
2018-12-03T02:33:57.602Z,20.99
2018-12-03T02:36:23.558Z,20.98
2018-12-03T02:38:49.513Z,20.98
2018-12-03T02:41:15.465Z,20.96
2018-12-03T02:43:41.427Z,20.97
2018-12-03T02:46:07.382Z,20.96
2018-12-03T02:48:33.356Z,20.96
2018-12-03T02:50:59.359Z,20.98
2018-12-03T02:53:25.310Z,20.98
2018-12-03T02:55:51.277Z,20.98
2018-12-03T02:58:17.281Z,20.97
2018-12-03T03:00:43.232Z,20.97
2018-12-03T03:03:09.218Z,20.97
2018-12-03T03:05:35.174Z,20.98
2018-12-03T03:08:01.126Z,20.97
2018-12-03T03:10:27.186Z,21.00
2018-12-03T03:12:53.158Z,21.00
2018-12-03T03:15:19.140Z,21.01
2018-12-03T03:17:45.080Z,21.03
2018-12-03T03:20:11.033Z,21.04
2018-12-03T03:22:37.030Z,21.05
2018-12-03T03:25:02.981Z,21.05
2018-12-03T03:27:28.927Z,21.05
2018-12-03T03:29:54.874Z,21.05
2018-12-03T03:32:20.852Z,21.07
2018-12-03T03:34:46.870Z,21.08
2018-12-03T03:37:12.823Z,21.09
2018-12-03T03:39:38.781Z,21.11
2018-12-03T03:42:04.724Z,21.12
2018-12-03T03:44:30.774Z,21.11
2018-12-03T03:46:56.754Z,21.12
2018-12-03T03:49:22.735Z,21.11
2018-12-03T03:51:48.701Z,21.12
2018-12-03T03:54:14.666Z,21.11
2018-12-03T03:56:40.611Z,21.12
2018-12-03T03:59:06.570Z,21.13
2018-12-03T04:01:32.595Z,21.10
2018-12-03T04:03:58.554Z,21.08
2018-12-03T04:06:24.535Z,21.07
2018-12-03T04:08:50.487Z,21.07
2018-12-03T04:11:16.446Z,21.08
2018-12-03T04:13:42.453Z,21.11
2018-12-03T04:16:08.419Z,21.10
2018-12-03T04:18:34.369Z,21.11
2018-12-03T04:21:00.411Z,21.13
2018-12-03T04:23:26.361Z,21.13
2018-12-03T04:25:52.353Z,21.12
2018-12-03T04:28:18.289Z,21.13
2018-12-03T04:30:44.247Z,21.15
2018-12-03T04:33:10.195Z,21.16
2018-12-03T04:35:36.150Z,21.16
2018-12-03T04:38:03.222Z,21.17
2018-12-03T04:40:29.199Z,21.16
2018-12-03T04:42:55.146Z,21.17
2018-12-03T04:45:21.113Z,21.17
2018-12-03T04:47:47.060Z,21.17
2018-12-03T04:50:13.048Z,21.16
2018-12-03T04:52:38.997Z,21.15
2018-12-03T04:55:04.943Z,21.13
2018-12-03T04:57:30.917Z,21.13
2018-12-03T04:59:56.871Z,21.15
2018-12-03T05:02:22.813Z,21.17
2018-12-03T05:04:48.822Z,21.18
2018-12-03T05:07:14.806Z,21.19
2018-12-03T05:09:40.749Z,21.19
2018-12-03T05:12:06.706Z,21.20
2018-12-03T05:14:32.662Z,21.20
2018-12-03T05:16:58.615Z,21.20
2018-12-03T05:19:24.637Z,21.19
2018-12-03T05:21:50.594Z,21.20
2018-12-03T05:24:16.549Z,21.16
2018-12-03T05:26:42.515Z,21.16
2018-12-03T05:29:08.487Z,21.17
2018-12-03T05:31:34.521Z,21.16
2018-12-03T05:34:00.468Z,21.18
2018-12-03T05:36:26.415Z,21.16
2018-12-03T05:38:52.366Z,21.15
2018-12-03T05:41:18.312Z,21.14
2018-12-03T05:43:44.265Z,21.12
2018-12-03T05:46:10.218Z,21.12
2018-12-03T05:48:36.177Z,21.12
2018-12-03T05:51:02.144Z,21.13
2018-12-03T05:53:28.091Z,21.13
2018-12-03T05:55:54.051Z,21.12
2018-12-03T05:58:20.030Z,21.13
2018-12-03T06:00:46.000Z,21.11
2018-12-03T06:03:11.966Z,21.11
2018-12-03T06:05:37.935Z,21.09
2018-12-03T06:08:03.895Z,21.10
2018-12-03T06:10:29.874Z,21.08
2018-12-03T06:12:55.848Z,21.08
2018-12-03T06:15:21.866Z,21.08
2018-12-03T06:17:47.834Z,21.09
2018-12-03T06:20:13.777Z,21.09
2018-12-03T06:22:39.729Z,21.08
2018-12-03T06:25:05.734Z,21.09
2018-12-03T06:27:31.687Z,21.06
2018-12-03T06:29:57.714Z,21.06
2018-12-03T06:32:23.718Z,21.06
2018-12-03T06:34:49.700Z,21.07
2018-12-03T06:37:15.649Z,21.09
2018-12-03T06:39:41.613Z,21.07
2018-12-03T06:42:07.569Z,21.08
2018-12-03T06:44:33.579Z,21.09
2018-12-03T06:46:59.557Z,21.09
2018-12-03T06:49:25.613Z,21.06
2018-12-03T06:51:51.558Z,21.08
2018-12-03T06:54:17.528Z,21.08
2018-12-03T06:56:43.497Z,21.07
2018-12-03T06:59:09.525Z,21.07
2018-12-03T07:01:35.650Z,21.06
2018-12-03T07:04:01.610Z,21.06
2018-12-03T07:06:27.578Z,21.07
2018-12-03T07:08:53.560Z,21.08
2018-12-03T07:11:19.627Z,21.07
2018-12-03T07:13:45.579Z,21.07
2018-12-03T07:16:11.551Z,21.06
2018-12-03T07:18:37.489Z,21.08
2018-12-03T07:21:03.453Z,21.07
2018-12-03T07:23:29.453Z,21.09
2018-12-03T07:25:55.394Z,21.06
2018-12-03T07:28:21.337Z,21.09
2018-12-03T07:30:47.398Z,21.10
2018-12-03T07:33:13.651Z,21.10
2018-12-03T07:35:39.614Z,21.12
2018-12-03T07:38:05.694Z,21.13
2018-12-03T07:40:31.724Z,21.16
2018-12-03T07:42:57.758Z,21.14
2018-12-03T07:45:23.786Z,21.16
2018-12-03T07:47:49.819Z,21.14
2018-12-03T07:50:15.837Z,21.14
2018-12-03T07:52:41.901Z,21.13
2018-12-03T07:55:07.846Z,21.12
2018-12-03T07:57:33.797Z,21.13
2018-12-03T08:00:00.002Z,21.13
2018-12-03T08:02:25.954Z,21.13
2018-12-03T08:04:51.910Z,21.14
2018-12-03T08:07:17.857Z,21.14
2018-12-03T08:09:43.822Z,21.15
2018-12-03T08:12:09.890Z,21.15
2018-12-03T08:14:35.836Z,21.16
2018-12-03T08:17:01.806Z,21.16
2018-12-03T08:19:27.755Z,21.17
2018-12-03T08:21:53.746Z,21.17
2018-12-03T08:24:19.685Z,21.17
2018-12-03T08:26:45.630Z,21.15
2018-12-03T08:29:11.690Z,21.12
2018-12-03T08:31:37.658Z,21.12
2018-12-03T08:34:03.628Z,21.13
2018-12-03T08:36:29.581Z,21.15
2018-12-03T08:38:55.550Z,21.16
2018-12-03T08:41:21.497Z,21.15
2018-12-03T08:43:47.469Z,21.17
2018-12-03T08:46:13.417Z,21.17
2018-12-03T08:48:39.417Z,21.17
2018-12-03T08:51:05.364Z,21.16
2018-12-03T08:53:31.471Z,21.16
2018-12-03T08:55:57.511Z,21.18
2018-12-03T08:58:23.532Z,21.19
2018-12-03T09:00:49.505Z,21.20
2018-12-03T09:03:15.471Z,21.22
2018-12-03T09:05:41.427Z,21.23
2018-12-03T09:08:07.386Z,21.23
2018-12-03T09:10:33.426Z,21.23
2018-12-03T09:12:59.378Z,21.24
2018-12-03T09:15:25.325Z,21.24
2018-12-03T09:17:51.274Z,21.23
2018-12-03T09:20:17.232Z,21.24
2018-12-03T09:22:43.201Z,21.24
2018-12-03T09:25:09.156Z,21.25
2018-12-03T09:27:35.124Z,21.24
2018-12-03T09:30:01.216Z,21.26
2018-12-03T09:32:27.262Z,21.23
2018-12-03T09:34:53.223Z,21.23
2018-12-03T09:37:19.213Z,21.23
2018-12-03T09:39:45.178Z,21.20
2018-12-03T09:42:11.130Z,21.21
2018-12-03T09:44:37.124Z,21.24
2018-12-03T09:47:03.122Z,21.25
2018-12-03T09:49:29.066Z,21.25
2018-12-03T09:51:55.022Z,21.27
2018-12-03T09:54:20.979Z,21.26
2018-12-03T09:56:46.928Z,21.26
2018-12-03T09:59:12.873Z,21.28
2018-12-03T10:01:38.832Z,21.26
2018-12-03T10:04:04.794Z,21.27
2018-12-03T10:06:30.734Z,21.27
2018-12-03T10:08:56.690Z,21.28
2018-12-03T10:11:22.762Z,21.27
2018-12-03T10:13:48.724Z,21.27
2018-12-03T10:16:14.722Z,21.27
2018-12-03T10:18:40.662Z,21.28
2018-12-03T10:21:06.614Z,21.27
2018-12-03T10:23:32.571Z,21.26
2018-12-03T10:25:58.543Z,21.26
2018-12-03T10:28:24.554Z,21.26
2018-12-03T10:30:50.543Z,21.26
2018-12-03T10:33:16.503Z,21.29
2018-12-03T10:35:42.555Z,21.27
2018-12-03T10:38:08.493Z,21.27
2018-12-03T10:40:34.473Z,21.27
2018-12-03T10:43:00.425Z,21.28
2018-12-03T10:45:26.445Z,21.30
2018-12-03T10:47:52.401Z,21.30
2018-12-03T10:50:22.178Z,21.29
2018-12-03T10:52:44.374Z,21.29
2018-12-03T10:55:10.325Z,21.29
2018-12-03T10:57:36.306Z,21.30
2018-12-03T11:00:02.374Z,21.29
2018-12-03T11:02:28.366Z,21.29
2018-12-03T11:04:54.313Z,21.29
2018-12-03T11:07:20.311Z,21.29
2018-12-03T11:09:46.268Z,21.30
2018-12-03T11:12:12.260Z,21.29
2018-12-03T11:14:38.234Z,21.31
2018-12-03T11:17:04.191Z,21.31
2018-12-03T11:19:30.146Z,21.31
2018-12-03T11:21:56.117Z,21.31
2018-12-03T11:24:22.088Z,21.31
2018-12-03T11:26:48.035Z,21.30
2018-12-03T11:29:14.059Z,21.32
2018-12-03T11:31:40.030Z,21.32
2018-12-03T11:34:05.989Z,21.33
2018-12-03T11:36:31.951Z,21.34
2018-12-03T11:38:57.890Z,21.34
2018-12-03T11:41:23.842Z,21.35
2018-12-03T11:43:49.798Z,21.35
2018-12-03T11:46:15.863Z,21.36
2018-12-03T11:48:41.886Z,21.37
2018-12-03T11:51:07.867Z,21.39
2018-12-03T11:53:33.809Z,21.38
2018-12-03T11:55:59.783Z,21.37
2018-12-03T11:58:25.745Z,21.37
2018-12-03T12:00:51.705Z,21.37
2018-12-03T12:03:17.678Z,21.37
2018-12-03T12:05:43.678Z,21.36
2018-12-03T12:08:09.659Z,21.36
2018-12-03T12:10:35.606Z,21.37
2018-12-03T12:13:01.553Z,21.37
2018-12-03T12:15:27.534Z,21.38
2018-12-03T12:17:53.504Z,21.37
2018-12-03T12:20:19.463Z,21.35
2018-12-03T12:22:45.660Z,21.34
2018-12-03T12:25:11.738Z,21.34
2018-12-03T12:27:37.705Z,21.36
2018-12-03T12:30:03.692Z,21.36
2018-12-03T12:32:29.949Z,21.36
2018-12-03T12:34:55.919Z,21.36
2018-12-03T12:37:21.867Z,21.37
2018-12-03T12:39:47.864Z,21.38
2018-12-03T12:42:13.859Z,21.38
2018-12-03T12:44:39.849Z,21.38
2018-12-03T12:47:05.811Z,21.37
2018-12-03T12:49:31.802Z,21.35
2018-12-03T12:51:57.766Z,21.35
2018-12-03T12:54:23.742Z,21.36
2018-12-03T12:56:49.730Z,21.36
2018-12-03T12:59:15.693Z,21.37
2018-12-03T13:01:41.659Z,21.36
2018-12-03T13:04:07.674Z,21.35
2018-12-03T13:06:33.639Z,21.35
2018-12-03T13:08:59.589Z,21.35
2018-12-03T13:11:25.622Z,21.34
2018-12-03T13:13:51.573Z,21.33
2018-12-03T13:16:17.598Z,21.34
2018-12-03T13:18:44.395Z,21.35
2018-12-03T13:21:10.361Z,21.35
2018-12-03T13:23:36.354Z,21.34
2018-12-03T13:26:02.317Z,21.34
2018-12-03T13:28:28.287Z,21.34
2018-12-03T13:30:54.230Z,21.34
2018-12-03T13:33:20.201Z,21.34
2018-12-03T13:35:46.230Z,21.33
2018-12-03T13:38:12.191Z,21.33
2018-12-03T13:40:38.191Z,21.33
2018-12-03T13:43:04.143Z,21.32
2018-12-03T13:45:30.101Z,21.33
2018-12-03T13:47:56.060Z,21.34
2018-12-03T13:50:22.043Z,21.33
2018-12-03T13:52:47.995Z,21.33
2018-12-03T13:55:13.943Z,21.33
2018-12-03T13:57:39.890Z,21.33
2018-12-03T14:00:05.921Z,21.32
2018-12-03T14:02:31.889Z,21.32
2018-12-03T14:04:57.874Z,21.33
2018-12-03T14:07:23.840Z,21.32
2018-12-03T14:09:49.789Z,21.34
2018-12-03T14:12:15.846Z,21.33
2018-12-03T14:14:41.801Z,21.35
2018-12-03T14:17:07.962Z,21.33
2018-12-03T14:19:33.991Z,21.33
2018-12-03T14:21:59.968Z,21.32
2018-12-03T14:24:25.927Z,21.33
2018-12-03T14:26:51.885Z,21.33
2018-12-03T14:29:17.857Z,21.32
2018-12-03T14:31:43.826Z,21.34
2018-12-03T14:34:09.833Z,21.34
2018-12-03T14:36:35.805Z,21.36
2018-12-03T14:39:01.760Z,21.34
2018-12-03T14:41:27.721Z,21.34
2018-12-03T14:43:53.700Z,21.35
2018-12-03T14:46:19.674Z,21.33
2018-12-03T14:48:45.691Z,21.34
2018-12-03T14:51:11.657Z,21.33
2018-12-03T14:53:37.634Z,21.35
2018-12-03T14:56:03.587Z,21.37
2018-12-03T14:58:29.572Z,21.38
2018-12-03T15:00:55.615Z,21.36
2018-12-03T15:03:21.655Z,21.35
2018-12-03T15:05:47.673Z,21.37
2018-12-03T15:08:13.702Z,21.33
2018-12-03T15:10:39.733Z,21.33
2018-12-03T15:13:05.713Z,21.34
2018-12-03T15:15:31.694Z,21.34
2018-12-03T15:17:57.649Z,21.36
2018-12-03T15:20:23.864Z,21.35
2018-12-03T15:22:49.811Z,21.36
2018-12-03T15:25:15.773Z,21.37
2018-12-03T15:27:41.743Z,21.36
2018-12-03T15:30:07.813Z,21.36
2018-12-03T15:32:33.767Z,21.35
2018-12-03T15:34:59.733Z,21.36
2018-12-03T15:37:25.706Z,21.37
2018-12-03T15:39:51.692Z,21.38
2018-12-03T15:42:17.652Z,21.38
2018-12-03T15:44:43.614Z,21.37
2018-12-03T15:47:09.674Z,21.37
2018-12-03T15:49:35.634Z,21.38
2018-12-03T15:52:01.726Z,21.37
2018-12-03T15:54:27.679Z,21.36
2018-12-03T15:56:53.626Z,21.37
2018-12-03T15:59:19.591Z,21.36
2018-12-03T16:01:45.546Z,21.36
2018-12-03T16:04:11.553Z,21.36
2018-12-03T16:06:37.507Z,21.36
2018-12-03T16:09:03.485Z,21.37
2018-12-03T16:11:29.474Z,21.35
2018-12-03T16:13:55.455Z,21.35
2018-12-03T16:16:21.419Z,21.35
2018-12-03T16:18:47.407Z,21.36
2018-12-03T16:21:13.350Z,21.36
2018-12-03T16:23:39.332Z,21.37
2018-12-03T16:26:05.297Z,21.37
2018-12-03T16:28:31.260Z,21.37
2018-12-03T16:30:57.276Z,21.36
2018-12-03T16:33:23.238Z,21.37
2018-12-03T16:35:49.234Z,21.36
2018-12-03T16:38:15.198Z,21.38
2018-12-03T16:40:41.174Z,21.36
2018-12-03T16:43:07.160Z,21.37
2018-12-03T16:45:33.138Z,21.37
2018-12-03T16:47:59.183Z,21.37
2018-12-03T16:50:25.154Z,21.37
2018-12-03T16:52:51.098Z,21.38
2018-12-03T16:55:17.065Z,21.39
2018-12-03T16:57:43.040Z,21.40
2018-12-03T17:00:09.121Z,21.40
2018-12-03T17:02:35.133Z,21.39
2018-12-03T17:05:01.160Z,21.40
2018-12-03T17:07:27.204Z,21.41
2018-12-03T17:09:53.161Z,21.38
2018-12-03T17:12:19.162Z,21.38
2018-12-03T17:14:45.114Z,21.40
2018-12-03T17:17:11.053Z,21.39
2018-12-03T17:19:37.050Z,21.38
2018-12-03T17:22:03.058Z,21.38
2018-12-03T17:24:29.098Z,21.37
2018-12-03T17:26:55.118Z,21.38
2018-12-03T17:29:21.091Z,21.38
2018-12-03T17:31:47.090Z,21.37
2018-12-03T17:34:13.097Z,21.38
2018-12-03T17:36:39.057Z,21.38
2018-12-03T17:39:05.040Z,21.38
2018-12-03T17:41:31.003Z,21.37
2018-12-03T17:43:56.965Z,21.37
2018-12-03T17:46:22.934Z,21.38
2018-12-03T17:48:48.895Z,21.39
2018-12-03T17:51:14.862Z,21.38
2018-12-03T17:53:40.826Z,21.38
2018-12-03T17:56:07.874Z,21.39
2018-12-03T17:58:33.840Z,21.39
2018-12-03T18:00:59.823Z,21.39
2018-12-03T18:03:25.854Z,21.37
2018-12-03T18:05:51.867Z,21.38
2018-12-03T18:08:17.833Z,21.38
2018-12-03T18:10:44.001Z,21.37
2018-12-03T18:13:09.958Z,21.36
2018-12-03T18:15:35.898Z,21.37
2018-12-03T18:18:01.896Z,21.38
2018-12-03T18:20:27.841Z,21.38
2018-12-03T18:22:53.900Z,21.37
2018-12-03T18:25:19.875Z,21.36
2018-12-03T18:27:46.025Z,21.36
2018-12-03T18:30:11.996Z,21.37
2018-12-03T18:32:37.984Z,21.35
2018-12-03T18:35:03.969Z,21.37
2018-12-03T18:37:29.973Z,21.38
2018-12-03T18:39:55.941Z,21.37
2018-12-03T18:42:21.925Z,21.37
2018-12-03T18:44:47.904Z,21.37
2018-12-03T18:47:13.875Z,21.37
2018-12-03T18:49:39.827Z,21.37
2018-12-03T18:52:05.827Z,21.36
2018-12-03T18:54:31.822Z,21.37
2018-12-03T18:56:57.784Z,21.36
2018-12-03T18:59:23.742Z,21.35
2018-12-03T19:01:49.709Z,21.37
2018-12-03T19:04:15.782Z,21.37
2018-12-03T19:06:41.816Z,21.36
2018-12-03T19:09:07.857Z,21.36
2018-12-03T19:11:33.863Z,21.36
2018-12-03T19:13:59.897Z,21.36
2018-12-03T19:16:25.888Z,21.37
2018-12-03T19:18:51.819Z,21.36
2018-12-03T19:21:17.829Z,21.37
2018-12-03T19:23:43.849Z,21.37
2018-12-03T19:26:09.815Z,21.37
2018-12-03T19:28:35.775Z,21.37
2018-12-03T19:31:01.743Z,21.38
2018-12-03T19:33:27.730Z,21.38
2018-12-03T19:35:53.720Z,21.38
2018-12-03T19:38:19.715Z,21.36
2018-12-03T19:40:45.716Z,21.35
2018-12-03T19:43:11.674Z,21.36
2018-12-03T19:45:37.625Z,21.35
2018-12-03T19:48:03.606Z,21.35
2018-12-03T19:50:29.601Z,21.34
2018-12-03T19:52:55.602Z,21.34
2018-12-03T19:55:21.574Z,21.35
2018-12-03T19:57:47.566Z,21.35
2018-12-03T20:00:13.519Z,21.35
2018-12-03T20:02:39.494Z,21.35
2018-12-03T20:05:05.450Z,21.37
2018-12-03T20:07:31.436Z,21.36
2018-12-03T20:09:57.426Z,21.35
2018-12-03T20:12:23.405Z,21.36
2018-12-03T20:14:49.387Z,21.37
2018-12-03T20:17:15.370Z,21.36
2018-12-03T20:19:41.336Z,21.36
2018-12-03T20:22:07.300Z,21.34
2018-12-03T20:24:33.300Z,21.34
2018-12-03T20:26:59.326Z,21.33
2018-12-03T20:29:25.306Z,21.34
2018-12-03T20:31:51.300Z,21.33
2018-12-03T20:34:17.262Z,21.33
2018-12-03T20:36:43.290Z,21.31
2018-12-03T20:39:09.266Z,21.30
2018-12-03T20:41:35.232Z,21.31
2018-12-03T20:44:01.211Z,21.30
2018-12-03T20:46:27.272Z,21.31
2018-12-03T20:48:53.248Z,21.33
2018-12-03T20:51:19.219Z,21.33
2018-12-03T20:53:45.227Z,21.32
2018-12-03T20:56:11.201Z,21.33
2018-12-03T20:58:37.221Z,21.33
2018-12-03T21:01:03.171Z,21.33
2018-12-03T21:03:29.141Z,21.31
2018-12-03T21:05:55.105Z,21.33
2018-12-03T21:08:21.099Z,21.33
2018-12-03T21:10:47.128Z,21.33
2018-12-03T21:13:13.182Z,21.33
2018-12-03T21:15:39.238Z,21.33
2018-12-03T21:18:05.196Z,21.34
2018-12-03T21:20:31.194Z,21.32
2018-12-03T21:22:57.172Z,21.32
2018-12-03T21:25:50.433Z,21.29
2018-12-03T21:28:16.389Z,21.30
2018-12-03T21:30:42.361Z,21.33
2018-12-03T21:33:08.404Z,21.31
2018-12-03T21:35:34.370Z,21.32
2018-12-03T21:38:00.327Z,21.32
2018-12-03T21:40:26.306Z,21.30
2018-12-03T21:42:52.369Z,21.32
2018-12-03T21:45:18.317Z,21.32
2018-12-03T21:47:44.398Z,21.32
2018-12-03T21:50:10.437Z,21.32
2018-12-03T21:52:36.444Z,21.30
2018-12-03T21:55:02.474Z,21.30
2018-12-03T21:57:28.617Z,21.29
2018-12-03T21:59:56.966Z,21.29
2018-12-03T22:02:24.118Z,21.28
2018-12-03T22:04:50.290Z,21.28
2018-12-03T22:07:16.258Z,21.27
2018-12-03T22:09:42.226Z,21.27
2018-12-03T22:12:08.191Z,21.27
2018-12-03T22:14:34.158Z,21.26
2018-12-03T22:17:00.118Z,21.25
2018-12-03T22:19:26.134Z,21.25
2018-12-03T22:21:52.097Z,21.25
2018-12-03T22:24:18.050Z,21.26
2018-12-03T22:26:44.060Z,21.24
2018-12-03T22:29:10.051Z,21.25
2018-12-03T22:31:36.002Z,21.25
2018-12-03T22:34:01.967Z,21.25
2018-12-03T22:36:27.948Z,21.24
2018-12-03T22:38:53.893Z,21.23
2018-12-03T22:41:19.884Z,21.24
2018-12-03T22:43:45.845Z,21.24
2018-12-03T22:46:11.855Z,21.22
2018-12-03T22:48:37.844Z,21.21
2018-12-03T22:51:03.802Z,21.22
2018-12-03T22:53:30.784Z,21.18
2018-12-03T22:55:56.803Z,21.20
2018-12-03T22:58:22.836Z,21.20
2018-12-03T23:00:48.799Z,21.20
2018-12-03T23:03:15.379Z,21.18
2018-12-03T23:05:41.947Z,21.19
2018-12-03T23:08:07.941Z,21.20
2018-12-03T23:10:33.906Z,21.23
2018-12-03T23:12:59.891Z,21.21
2018-12-03T23:15:25.931Z,21.21
2018-12-03T23:17:51.993Z,21.22
2018-12-03T23:20:17.965Z,21.23
2018-12-03T23:22:43.960Z,21.23
2018-12-03T23:25:09.941Z,21.23
2018-12-03T23:27:35.994Z,21.22
2018-12-03T23:30:01.958Z,21.23
2018-12-03T23:32:27.936Z,21.24
2018-12-03T23:34:53.962Z,21.24
2018-12-03T23:37:19.987Z,21.23
2018-12-03T23:39:45.949Z,21.26
2018-12-03T23:42:11.970Z,21.25
2018-12-03T23:44:37.978Z,21.23
2018-12-03T23:47:04.025Z,21.25
2018-12-03T23:49:30.067Z,21.23
2018-12-03T23:51:56.018Z,21.22
2018-12-03T23:54:22.007Z,21.21
2018-12-03T23:56:48.000Z,21.21
2018-12-03T23:59:14.042Z,21.19
